Terminal Aerodrome Forecast
Issued by NWS

Home | Current Version | Previous Version | Text Only | Print | Product List | Glossary On
Versions: 1 2 3 4 5 6 7 8 9 10 11 12 13 14
000
FTUS45 KTFX 301100
TAFHLN
TAF
KHLN 301133Z 3012/0112 28008KT P6SM SCT040 BKN080
      TEMPO 3012/3014 -SHRA BKN040
     FM301400 27011KT P6SM VCSH SCT040 BKN080
     FM302000 30009KT P6SM SCT050 BKN120=

USA.gov is the U.S. government's official web portal to all federal, state and local government web resources and services.